createdAt,value
2022-09-18T00:00:58.621Z,64.00
2022-09-18T00:03:25.633Z,64.54
2022-09-18T00:05:52.298Z,62.76
2022-09-18T00:08:19.002Z,63.19
2022-09-18T00:10:48.785Z,63.63
2022-09-18T00:16:00.260Z,62.85
2022-09-18T00:18:27.085Z,62.72
2022-09-18T00:20:53.813Z,63.36
2022-09-18T00:23:20.873Z,62.19
2022-09-18T00:25:47.555Z,61.86
2022-09-18T00:28:14.259Z,62.99
2022-09-18T00:30:41.317Z,62.69
2022-09-18T00:33:08.026Z,61.51
2022-09-18T00:35:34.845Z,62.95
2022-09-18T00:38:01.845Z,62.32
2022-09-18T00:40:28.595Z,61.68
2022-09-18T00:42:55.554Z,62.73
2022-09-18T00:45:22.703Z,61.83
2022-09-18T00:47:49.450Z,62.44
2022-09-18T00:50:23.696Z,61.89
2022-09-18T00:52:58.132Z,63.40
2022-09-18T00:55:27.773Z,61.17
2022-09-18T00:57:55.726Z,61.20
2022-09-18T01:00:22.485Z,60.47
2022-09-18T01:02:49.393Z,60.97
2022-09-18T01:05:17.577Z,60.74
2022-09-18T01:07:59.785Z,61.00
2022-09-18T01:10:53.047Z,61.49
2022-09-18T01:13:19.835Z,61.75
2022-09-18T01:15:46.916Z,61.12
2022-09-18T01:18:32.187Z,59.26
2022-09-18T01:20:59.210Z,60.19
2022-09-18T01:23:49.315Z,59.61
2022-09-18T01:26:16.319Z,61.13
2022-09-18T01:28:48.349Z,58.91
2022-09-18T01:31:19.539Z,60.14
2022-09-18T01:33:53.290Z,62.08
2022-09-18T01:36:21.562Z,59.78
2022-09-18T01:38:53.058Z,60.10
2022-09-18T01:41:23.983Z,58.72
2022-09-18T01:43:54.856Z,59.24
2022-09-18T01:46:21.648Z,59.71
2022-09-18T01:48:53.482Z,59.68
2022-09-18T01:51:21.546Z,60.45
2022-09-18T01:53:51.067Z,59.16
2022-09-18T01:56:20.184Z,59.25
2022-09-18T01:58:47.398Z,57.31
2022-09-18T02:01:17.914Z,58.76
2022-09-18T02:03:46.856Z,58.47
2022-09-18T02:06:14.711Z,57.06
2022-09-18T02:08:45.930Z,58.99
2022-09-18T02:11:13.855Z,57.83
2022-09-18T02:13:47.098Z,57.55
2022-09-18T02:16:18.180Z,57.49
2022-09-18T02:18:46.096Z,59.22
2022-09-18T02:21:13.823Z,58.06
2022-09-18T02:23:40.945Z,56.01
2022-09-18T02:26:07.680Z,56.72
2022-09-18T02:28:35.922Z,58.06
2022-09-18T02:31:03.209Z,57.90
2022-09-18T02:33:36.864Z,57.39
2022-09-18T02:36:07.387Z,56.57
2022-09-18T02:38:41.331Z,57.30
2022-09-18T02:41:23.982Z,56.14
2022-09-18T02:43:59.297Z,56.34
2022-09-18T02:46:27.573Z,56.63
2022-09-18T02:48:57.807Z,56.58
2022-09-18T02:51:28.876Z,56.98
2022-09-18T02:54:19.718Z,56.55
2022-09-18T02:57:06.776Z,56.20
2022-09-18T02:59:40.986Z,56.82
2022-09-18T03:02:08.022Z,55.65
2022-09-18T03:04:35.633Z,54.71
2022-09-18T03:07:02.425Z,55.48
2022-09-18T03:09:30.110Z,55.28
2022-09-18T03:11:57.287Z,55.73
2022-09-18T03:14:25.401Z,56.14
2022-09-18T03:16:52.092Z,54.75
2022-09-18T03:19:19.451Z,56.42
2022-09-18T03:21:46.328Z,55.23
2022-09-18T03:24:13.100Z,54.93
2022-09-18T03:26:40.632Z,53.33
2022-09-18T03:29:10.797Z,55.85
2022-09-18T03:31:38.080Z,55.69
2022-09-18T03:34:06.977Z,56.47
2022-09-18T03:36:34.272Z,54.55
2022-09-18T03:39:02.217Z,55.20
2022-09-18T03:41:30.402Z,55.98
2022-09-18T03:43:57.365Z,56.80
2022-09-18T03:46:24.476Z,55.55
2022-09-18T03:48:52.302Z,56.18
2022-09-18T03:51:20.369Z,55.44
2022-09-18T03:53:47.540Z,54.86
2022-09-18T03:56:16.943Z,56.17
2022-09-18T03:58:44.036Z,56.50
2022-09-18T04:01:11.963Z,55.85
2022-09-18T04:03:39.453Z,55.01
2022-09-18T04:06:16.205Z,55.77
2022-09-18T04:08:45.107Z,56.63
2022-09-18T04:11:12.034Z,55.35
2022-09-18T04:13:38.817Z,56.77
2022-09-18T04:16:06.046Z,56.11
2022-09-18T04:18:32.836Z,56.55
2022-09-18T04:21:01.111Z,57.19
2022-09-18T04:23:28.288Z,55.51
2022-09-18T04:25:56.966Z,55.93
2022-09-18T04:28:25.032Z,55.44
2022-09-18T04:30:52.403Z,55.78
2022-09-18T04:33:19.311Z,55.55
2022-09-18T04:35:47.478Z,55.06
2022-09-18T04:38:14.681Z,54.51
2022-09-18T04:40:41.614Z,55.10
2022-09-18T04:43:10.428Z,55.50
2022-09-18T04:45:39.402Z,56.06
2022-09-18T04:48:06.174Z,56.09
2022-09-18T04:50:33.030Z,56.10
2022-09-18T04:53:03.484Z,56.09
2022-09-18T04:55:31.608Z,55.57
2022-09-18T04:57:58.673Z,55.75
2022-09-18T05:00:26.205Z,54.52
2022-09-18T05:02:53.320Z,56.43
2022-09-18T05:05:20.590Z,53.28
2022-09-18T05:07:47.812Z,54.72
2022-09-18T05:10:15.753Z,54.69
2022-09-18T05:12:42.604Z,55.50
2022-09-18T05:15:10.129Z,52.99
2022-09-18T05:17:40.271Z,53.71
2022-09-18T05:20:08.885Z,53.28
2022-09-18T05:22:36.939Z,54.03
2022-09-18T05:25:04.180Z,53.17
2022-09-18T05:27:30.999Z,54.00
2022-09-18T05:29:58.209Z,52.83
2022-09-18T05:32:26.429Z,52.75
2022-09-18T05:34:53.184Z,55.24
2022-09-18T05:37:20.244Z,53.40
2022-09-18T05:39:47.532Z,54.01
2022-09-18T05:42:14.235Z,53.38
2022-09-18T05:44:43.290Z,55.45
2022-09-18T05:47:12.486Z,54.66
2022-09-18T05:49:39.290Z,55.11
2022-09-18T05:52:06.555Z,55.93
2022-09-18T05:54:36.196Z,55.14
2022-09-18T05:57:02.925Z,53.56
2022-09-18T05:59:30.835Z,57.03
2022-09-18T06:02:01.085Z,55.06
2022-09-18T06:04:31.447Z,56.02
2022-09-18T06:07:01.568Z,57.62
2022-09-18T06:09:28.683Z,56.28
2022-09-18T06:11:55.556Z,57.29
2022-09-18T06:14:22.401Z,58.62
2022-09-18T06:16:55.996Z,57.77
2022-09-18T06:19:22.715Z,56.00
2022-09-18T06:21:51.639Z,55.93
2022-09-18T06:24:18.775Z,55.87
2022-09-18T06:26:45.645Z,55.25
2022-09-18T06:29:12.621Z,56.07
2022-09-18T06:31:40.616Z,58.38
2022-09-18T06:34:07.716Z,54.53
2022-09-18T06:36:34.703Z,54.83
2022-09-18T06:39:03.466Z,57.25
2022-09-18T06:41:30.297Z,56.82
2022-09-18T06:43:57.441Z,54.94
2022-09-18T06:46:24.842Z,54.72
2022-09-18T06:48:52.456Z,55.86
2022-09-18T06:51:19.481Z,54.94
2022-09-18T06:53:51.486Z,55.18
2022-09-18T06:56:19.485Z,53.59
2022-09-18T06:58:47.679Z,52.72
2022-09-18T07:01:15.433Z,52.64
2022-09-18T07:03:42.645Z,51.54
2022-09-18T07:06:10.251Z,48.77
2022-09-18T07:08:38.971Z,49.19
2022-09-18T07:11:07.991Z,48.08
2022-09-18T07:13:37.764Z,45.76
2022-09-18T07:16:05.340Z,44.53
2022-09-18T07:18:32.670Z,46.09
2022-09-18T07:20:59.866Z,45.62
2022-09-18T07:23:30.972Z,43.91
2022-09-18T07:25:59.322Z,43.69
2022-09-18T07:28:26.823Z,43.49
2022-09-18T07:30:54.397Z,45.24
2022-09-18T07:33:21.253Z,45.05
2022-09-18T07:35:48.457Z,44.50
2022-09-18T07:38:16.372Z,44.26
2022-09-18T07:40:45.581Z,43.06
2022-09-18T07:43:12.678Z,44.49
2022-09-18T07:45:42.043Z,44.58
2022-09-18T07:48:09.784Z,44.09
2022-09-18T07:50:37.875Z,45.45
2022-09-18T07:53:05.461Z,44.88
2022-09-18T07:55:34.288Z,45.34
2022-09-18T07:58:04.795Z,44.36
2022-09-18T08:00:34.929Z,42.99
2022-09-18T08:03:03.327Z,43.51
2022-09-18T08:05:33.245Z,42.92
2022-09-18T08:08:06.879Z,43.93
2022-09-18T08:10:34.535Z,44.85
2022-09-18T08:13:03.104Z,44.86
2022-09-18T08:18:20.575Z,43.56
2022-09-18T08:20:47.788Z,43.52
2022-09-18T08:23:15.117Z,47.17
2022-09-18T08:25:43.486Z,43.53
2022-09-18T08:28:10.338Z,43.49
2022-09-18T08:30:38.222Z,44.97
2022-09-18T08:33:06.490Z,46.34
2022-09-18T08:35:33.636Z,43.48
2022-09-18T08:38:01.100Z,44.43
2022-09-18T08:40:39.864Z,41.75
2022-09-18T08:43:21.096Z,43.63
2022-09-18T08:46:00.799Z,40.54
2022-09-18T08:48:29.528Z,43.60
2022-09-18T08:51:09.933Z,41.20
2022-09-18T08:53:39.132Z,40.92
2022-09-18T08:56:07.226Z,40.59
2022-09-18T08:58:35.694Z,42.42
2022-09-18T09:01:13.595Z,42.18
2022-09-18T09:03:59.624Z,43.12
2022-09-18T09:06:29.521Z,42.62
2022-09-18T09:09:00.519Z,42.65
2022-09-18T09:11:39.301Z,43.01
2022-09-18T09:14:10.660Z,43.00
2022-09-18T09:16:41.588Z,44.17
2022-09-18T09:19:15.279Z,44.26
2022-09-18T09:21:42.056Z,44.58
2022-09-18T09:24:09.083Z,45.46
2022-09-18T09:26:36.972Z,43.79
2022-09-18T09:29:31.531Z,48.16
2022-09-18T09:32:18.223Z,43.75
2022-09-18T09:34:46.720Z,44.11
2022-09-18T09:37:22.251Z,44.68
2022-09-18T09:39:54.471Z,46.19
2022-09-18T09:42:26.396Z,45.88
2022-09-18T09:45:24.010Z,45.05
2022-09-18T09:47:54.151Z,43.32
2022-09-18T09:50:33.130Z,45.45
2022-09-18T09:53:04.618Z,45.11
2022-09-18T09:55:32.162Z,44.10
2022-09-18T09:58:03.329Z,46.89
2022-09-18T10:01:05.636Z,46.04
2022-09-18T10:03:51.910Z,44.25
2022-09-18T10:06:40.978Z,44.89
2022-09-18T10:09:14.354Z,44.71
2022-09-18T10:11:43.132Z,44.71
2022-09-18T10:14:11.785Z,43.61
2022-09-18T10:16:43.033Z,43.73
2022-09-18T10:19:11.354Z,42.43
2022-09-18T10:21:38.445Z,42.94
2022-09-18T10:24:11.065Z,43.11
2022-09-18T10:26:39.864Z,42.36
2022-09-18T10:29:08.068Z,41.80
2022-09-18T10:32:07.030Z,41.29
2022-09-18T10:34:41.069Z,42.78
2022-09-18T10:37:14.074Z,42.09
2022-09-18T10:39:51.722Z,44.29
2022-09-18T10:42:19.552Z,41.34
2022-09-18T10:44:51.663Z,43.13
2022-09-18T10:47:25.999Z,42.91
2022-09-18T10:49:57.842Z,41.77
2022-09-18T10:52:27.004Z,44.12
2022-09-18T10:54:58.144Z,41.98
2022-09-18T10:57:38.675Z,41.25
2022-09-18T11:00:27.178Z,41.65
2022-09-18T11:03:15.083Z,42.85
2022-09-18T11:05:55.877Z,40.72
2022-09-18T11:08:27.059Z,43.13
2022-09-18T11:10:59.430Z,40.69
2022-09-18T11:13:26.851Z,41.33
2022-09-18T11:15:55.762Z,40.20
2022-09-18T11:18:23.553Z,41.40
2022-09-18T11:20:52.171Z,43.14
2022-09-18T11:23:19.390Z,43.28
2022-09-18T11:25:47.190Z,42.48
2022-09-18T11:28:21.944Z,43.54
2022-09-18T11:31:19.302Z,42.77
2022-09-18T11:33:48.105Z,42.39
2022-09-18T11:36:24.658Z,40.41
2022-09-18T11:38:51.869Z,41.79
2022-09-18T11:41:27.421Z,39.98
2022-09-18T11:44:04.817Z,40.23
2022-09-18T11:46:32.249Z,39.48
2022-09-18T11:49:04.848Z,40.52
2022-09-18T11:51:41.505Z,38.80
2022-09-18T11:54:08.834Z,38.31
2022-09-18T11:56:39.152Z,39.62
2022-09-18T11:59:09.916Z,39.65
2022-09-18T12:01:42.074Z,41.83
2022-09-18T12:04:41.860Z,37.83
2022-09-18T12:07:12.028Z,37.81
2022-09-18T12:09:40.377Z,38.57
2022-09-18T12:12:11.486Z,36.89
2022-09-18T12:14:46.332Z,37.28
2022-09-18T12:17:16.316Z,35.23
2022-09-18T12:19:48.359Z,35.63
2022-09-18T12:22:16.539Z,35.94
2022-09-18T12:24:45.008Z,36.63
2022-09-18T12:27:31.663Z,38.27
2022-09-18T12:30:12.080Z,34.26
2022-09-18T12:32:38.794Z,35.64
2022-09-18T12:35:17.915Z,35.92
2022-09-18T12:38:01.244Z,34.11
2022-09-18T12:40:43.138Z,34.38
2022-09-18T12:43:36.233Z,32.49
2022-09-18T12:46:18.343Z,33.42
2022-09-18T12:48:49.455Z,35.69
2022-09-18T12:51:24.397Z,36.06
2022-09-18T12:54:05.849Z,34.58
2022-09-18T12:56:45.379Z,32.31
2022-09-18T12:59:21.073Z,32.98
2022-09-18T13:02:00.518Z,33.33
2022-09-18T13:04:31.302Z,31.33
2022-09-18T13:07:01.251Z,32.88
2022-09-18T13:09:33.116Z,35.13
2022-09-18T13:12:09.949Z,31.66
2022-09-18T13:14:38.447Z,33.79
2022-09-18T13:17:35.546Z,34.80
2022-09-18T13:20:34.587Z,33.04
2022-09-18T13:23:01.768Z,34.93
2022-09-18T13:25:30.387Z,36.16
2022-09-18T13:27:57.376Z,34.25
2022-09-18T13:30:25.829Z,34.76
2022-09-18T13:32:53.675Z,35.83
2022-09-18T13:35:20.788Z,36.22
2022-09-18T13:37:48.716Z,35.22
2022-09-18T13:40:27.760Z,37.46
2022-09-18T13:42:54.801Z,36.55
2022-09-18T13:45:23.431Z,41.87
2022-09-18T13:47:59.444Z,48.53
2022-09-18T13:50:26.611Z,47.82
2022-09-18T13:52:57.386Z,46.80
2022-09-18T13:55:25.451Z,50.19
2022-09-18T13:57:52.859Z,50.27
2022-09-18T14:00:19.617Z,49.38
2022-09-18T14:02:47.201Z,51.95
2022-09-18T14:05:32.803Z,52.86
2022-09-18T14:08:04.036Z,54.08
2022-09-18T14:10:32.208Z,54.38
2022-09-18T14:13:22.527Z,55.40
2022-09-18T14:15:56.421Z,56.23
2022-09-18T14:18:25.215Z,58.24
2022-09-18T14:20:52.861Z,55.93
2022-09-18T14:23:35.571Z,54.51
2022-09-18T14:26:07.768Z,53.06
2022-09-18T14:28:34.940Z,51.04
2022-09-18T14:31:12.999Z,53.18
2022-09-18T14:33:39.790Z,52.33
2022-09-18T14:36:07.282Z,53.60
2022-09-18T14:38:41.257Z,56.32
2022-09-18T14:41:28.637Z,57.42
2022-09-18T14:43:58.455Z,59.61
2022-09-18T14:46:25.945Z,59.33
2022-09-18T14:48:52.835Z,57.62
2022-09-18T14:51:21.983Z,58.78
2022-09-18T14:53:50.247Z,59.34
2022-09-18T14:56:18.399Z,57.98
2022-09-18T14:58:46.699Z,56.55
2022-09-18T15:01:17.479Z,55.59
2022-09-18T15:03:47.813Z,55.89
2022-09-18T15:06:19.448Z,55.54
2022-09-18T15:08:46.265Z,54.00
2022-09-18T15:11:13.368Z,52.71
2022-09-18T15:13:40.356Z,53.51
2022-09-18T15:16:07.377Z,53.39
2022-09-18T15:18:41.911Z,50.21
2022-09-18T15:21:29.829Z,48.21
2022-09-18T15:24:02.041Z,47.95
2022-09-18T15:26:41.844Z,48.00
2022-09-18T15:29:14.157Z,47.82
2022-09-18T15:31:41.178Z,47.70
2022-09-18T15:34:27.481Z,49.58
2022-09-18T15:36:55.712Z,50.82
2022-09-18T15:39:41.411Z,50.40
2022-09-18T15:42:11.520Z,50.05
2022-09-18T15:44:58.179Z,51.00
2022-09-18T15:47:39.215Z,50.83
2022-09-18T15:50:11.683Z,52.17
2022-09-18T15:52:40.699Z,53.37
2022-09-18T15:55:10.212Z,53.81
2022-09-18T15:57:37.706Z,53.10
2022-09-18T16:00:07.554Z,53.23
2022-09-18T16:02:39.344Z,52.31
2022-09-18T16:05:10.180Z,52.65
2022-09-18T16:07:39.870Z,49.90
2022-09-18T16:10:28.691Z,50.14
2022-09-18T16:12:55.432Z,51.46
2022-09-18T16:15:23.304Z,53.61
2022-09-18T16:17:54.443Z,53.14
2022-09-18T16:20:21.594Z,53.42
2022-09-18T16:22:49.245Z,54.83
2022-09-18T16:25:20.206Z,55.88
2022-09-18T16:27:47.205Z,54.59
2022-09-18T16:30:15.757Z,54.82
2022-09-18T16:32:42.737Z,54.75
2022-09-18T16:35:13.116Z,54.31
2022-09-18T16:37:41.219Z,52.57
2022-09-18T16:40:18.682Z,52.79
2022-09-18T16:42:45.882Z,51.84
2022-09-18T16:45:15.382Z,52.67
2022-09-18T16:47:44.137Z,52.07
2022-09-18T16:50:11.849Z,51.05
2022-09-18T16:52:38.576Z,51.36
2022-09-18T16:55:05.585Z,52.10
2022-09-18T16:57:32.558Z,52.49
2022-09-18T17:00:00.125Z,53.49
2022-09-18T17:02:26.964Z,52.21
2022-09-18T17:04:54.117Z,52.17
2022-09-18T17:07:21.153Z,51.46
2022-09-18T17:09:48.213Z,51.21
2022-09-18T17:12:15.689Z,50.45
2022-09-18T17:14:42.537Z,52.51
2022-09-18T17:17:09.611Z,52.70
2022-09-18T17:19:37.629Z,52.66
2022-09-18T17:22:05.803Z,52.64
2022-09-18T17:24:32.704Z,52.35
2022-09-18T17:27:00.024Z,53.99
2022-09-18T17:29:27.337Z,54.54
2022-09-18T17:32:00.607Z,54.77
2022-09-18T17:34:29.270Z,54.98
2022-09-18T17:36:56.458Z,54.75
2022-09-18T17:39:23.818Z,55.82
2022-09-18T17:41:51.969Z,55.15
2022-09-18T17:44:22.143Z,55.66
2022-09-18T17:46:52.831Z,55.08
2022-09-18T17:49:20.524Z,55.80
2022-09-18T17:51:50.522Z,55.36
2022-09-18T17:54:18.003Z,55.88
2022-09-18T17:56:45.724Z,56.14
2022-09-18T17:59:14.410Z,56.39
2022-09-18T18:01:46.295Z,55.94
2022-09-18T18:04:14.161Z,56.04
2022-09-18T18:06:41.276Z,55.48
2022-09-18T18:09:09.994Z,55.66
2022-09-18T18:11:40.862Z,56.83
2022-09-18T18:14:07.981Z,56.73
2022-09-18T18:16:34.918Z,56.33
2022-09-18T18:19:04.013Z,56.76
2022-09-18T18:21:31.596Z,56.94
2022-09-18T18:24:02.013Z,57.85
2022-09-18T18:26:29.506Z,57.34
2022-09-18T18:28:56.738Z,57.80
2022-09-18T18:31:25.920Z,57.51
2022-09-18T18:33:53.650Z,56.90
2022-09-18T18:36:21.920Z,56.95
2022-09-18T18:38:49.918Z,57.09
2022-09-18T18:41:18.012Z,57.58
2022-09-18T18:43:46.466Z,57.17
2022-09-18T18:46:15.810Z,56.04
2022-09-18T18:48:43.691Z,56.78
2022-09-18T18:51:17.087Z,57.34
2022-09-18T18:53:44.630Z,57.09
2022-09-18T18:56:16.043Z,56.43
2022-09-18T18:58:44.550Z,56.52
2022-09-18T19:01:14.932Z,56.43
2022-09-18T19:03:45.946Z,56.16
2022-09-18T19:06:14.973Z,56.15
2022-09-18T19:08:43.064Z,56.43
2022-09-18T19:11:10.283Z,56.19
2022-09-18T19:13:44.954Z,55.96
2022-09-18T19:16:12.739Z,56.63
2022-09-18T19:18:40.188Z,56.80
2022-09-18T19:21:08.368Z,57.50
2022-09-18T19:23:36.590Z,57.34
2022-09-18T19:26:12.410Z,56.86
2022-09-18T19:28:39.317Z,57.85
2022-09-18T19:31:10.220Z,58.04
2022-09-18T19:33:38.704Z,58.38
2022-09-18T19:36:08.268Z,59.13
2022-09-18T19:38:38.881Z,58.56
2022-09-18T19:41:30.340Z,59.15
2022-09-18T19:43:57.581Z,59.35
2022-09-18T19:46:28.545Z,58.29
2022-09-18T19:48:55.341Z,59.20
2022-09-18T19:51:22.799Z,58.42
2022-09-18T19:53:49.737Z,59.93
2022-09-18T19:56:39.211Z,59.95
2022-09-18T19:59:04.182Z,58.09
2022-09-18T20:01:31.102Z,59.57
2022-09-18T20:03:58.901Z,58.93
2022-09-18T20:06:25.700Z,59.15
2022-09-18T20:08:52.613Z,60.42
2022-09-18T20:11:19.620Z,60.28
2022-09-18T20:13:49.035Z,59.06
2022-09-18T20:16:15.887Z,59.55
2022-09-18T20:18:43.162Z,58.88
2022-09-18T20:21:10.867Z,59.01
2022-09-18T20:23:37.909Z,58.69
2022-09-18T20:26:08.557Z,59.11
2022-09-18T20:28:36.332Z,58.92
2022-09-18T20:31:04.549Z,59.83
2022-09-18T20:33:31.859Z,58.43
2022-09-18T20:35:59.095Z,58.55
2022-09-18T20:38:32.854Z,57.47
2022-09-18T20:41:03.667Z,57.94
2022-09-18T20:43:33.157Z,58.28
2022-09-18T20:46:00.651Z,57.19
2022-09-18T20:48:34.328Z,56.86
2022-09-18T20:51:08.674Z,58.47
2022-09-18T20:53:38.311Z,57.86
2022-09-18T20:56:05.841Z,58.89
2022-09-18T20:58:34.141Z,58.75
2022-09-18T21:01:13.135Z,58.66
2022-09-18T21:03:41.217Z,56.76
2022-09-18T21:06:21.729Z,56.01
2022-09-18T21:08:50.145Z,55.60
2022-09-18T21:11:18.646Z,57.09
2022-09-18T21:13:47.573Z,55.92
2022-09-18T21:16:14.914Z,55.57
2022-09-18T21:18:42.062Z,55.63
2022-09-18T21:21:09.871Z,53.18
2022-09-18T21:23:57.762Z,52.46
2022-09-18T21:26:27.572Z,52.29
2022-09-18T21:28:55.681Z,52.96
2022-09-18T21:31:23.082Z,52.76
2022-09-18T21:33:53.076Z,53.26
2022-09-18T21:36:21.843Z,53.11
2022-09-18T21:38:50.901Z,52.99
2022-09-18T21:41:18.507Z,52.87
2022-09-18T21:43:47.454Z,51.99
2022-09-18T21:46:15.078Z,51.82
2022-09-18T21:48:42.495Z,53.04
2022-09-18T21:51:11.058Z,53.56
2022-09-18T21:53:41.584Z,52.48
2022-09-18T21:56:10.410Z,52.82
2022-09-18T21:58:40.501Z,51.93
2022-09-18T22:01:15.626Z,51.32
2022-09-18T22:03:50.478Z,51.72
2022-09-18T22:06:18.254Z,52.14
2022-09-18T22:08:48.784Z,52.18
2022-09-18T22:11:16.287Z,51.65
2022-09-18T22:13:43.047Z,53.13
2022-09-18T22:16:10.149Z,52.19
2022-09-18T22:18:38.217Z,52.94
2022-09-18T22:21:05.877Z,51.90
2022-09-18T22:23:32.847Z,52.62
2022-09-18T22:26:04.568Z,52.11
2022-09-18T22:28:31.367Z,52.99
2022-09-18T22:30:58.468Z,52.20
2022-09-18T22:33:25.605Z,52.19
2022-09-18T22:35:52.326Z,52.23
2022-09-18T22:38:19.292Z,52.03
2022-09-18T22:40:46.306Z,51.03
2022-09-18T22:43:16.698Z,52.51
2022-09-18T22:45:44.512Z,50.92
2022-09-18T22:48:11.301Z,52.01
2022-09-18T22:50:37.990Z,51.65
2022-09-18T22:53:05.031Z,51.07
2022-09-18T22:55:31.883Z,50.90
2022-09-18T22:57:58.564Z,51.44
2022-09-18T23:00:26.105Z,50.62
2022-09-18T23:03:01.117Z,52.41
2022-09-18T23:05:28.200Z,50.27
2022-09-18T23:07:54.947Z,50.41
2022-09-18T23:10:22.098Z,49.82
2022-09-18T23:12:49.140Z,51.25
2022-09-18T23:15:15.883Z,51.28
2022-09-18T23:17:44.179Z,50.15
2022-09-18T23:20:11.214Z,49.84
2022-09-18T23:22:37.863Z,50.53
2022-09-18T23:25:04.726Z,50.37
2022-09-18T23:27:31.685Z,50.17
2022-09-18T23:29:58.448Z,50.18
2022-09-18T23:32:25.129Z,52.49
2022-09-18T23:34:52.144Z,52.75
2022-09-18T23:37:19.149Z,51.65
2022-09-18T23:39:45.947Z,53.19
2022-09-18T23:42:27.878Z,51.28
2022-09-18T23:44:55.064Z,51.21
2022-09-18T23:47:21.817Z,49.82
2022-09-18T23:49:48.648Z,51.43
2022-09-18T23:52:18.040Z,50.49
2022-09-18T23:54:44.725Z,50.03
2022-09-18T23:57:11.405Z,49.55
2022-09-18T23:59:38.540Z,49.61
